Time;durP1;ratioP1;P1;durP2;ratioP2;P2;SDS_P1;SDS_P2;PMS_P1;PMS_P2;Temp;Humidity;BMP_temperature;BMP_pressure;BME280_temperature;BME280_humidity;BME280_pressure;Samples;Min_cycle;Max_cycle;Signal;HPM_P1;HPM_P2
2023/05/02 00:01:50;;;;;;;2.50;2.30;;;17.80;60.00;;;;;;5066251;28;45250;-66
2023/05/02 00:04:17;;;;;;;6.65;2.95;;;17.80;59.90;;;;;;5066250;28;45333;-66
2023/05/02 00:06:45;;;;;;;2.95;2.65;;;17.80;59.90;;;;;;5066688;28;45360;-66
2023/05/02 00:09:12;;;;;;;2.70;2.50;;;17.80;59.90;;;;;;5066551;28;45593;-66
2023/05/02 00:11:38;;;;;;;2.83;2.35;;;17.80;59.90;;;;;;5066139;28;46546;-66
2023/05/02 00:14:05;;;;;;;3.55;3.25;;;17.70;59.90;;;;;;5066200;28;45403;-66
2023/05/02 00:16:32;;;;;;;2.38;2.17;;;17.70;59.90;;;;;;5066537;28;45408;-66
2023/05/02 00:19:00;;;;;;;2.72;2.30;;;17.70;60.10;;;;;;5066357;28;45244;-66
2023/05/02 00:21:28;;;;;;;2.65;2.45;;;17.60;60.00;;;;;;5065842;28;46397;-66
2023/05/02 00:23:55;;;;;;;3.22;2.85;;;17.60;60.00;;;;;;5065966;28;45313;-66
2023/05/02 00:26:22;;;;;;;2.90;2.50;;;17.60;60.00;;;;;;5066140;28;45300;-66
2023/05/02 00:28:49;;;;;;;2.67;2.33;;;17.60;60.00;;;;;;5066269;28;45517;-66
2023/05/02 00:31:16;;;;;;;2.90;2.00;;;17.60;59.80;;;;;;5065736;28;46678;-66
2023/05/02 00:33:43;;;;;;;2.88;2.67;;;17.60;60.00;;;;;;5065812;28;45496;-66
2023/05/02 00:36:15;;;;;;;2.60;2.40;;;17.60;60.10;;;;;;5066081;28;45385;-66
2023/05/02 00:38:42;;;;;;;2.85;2.20;;;17.50;60.10;;;;;;5066161;28;45432;-66
2023/05/02 00:41:08;;;;;;;2.65;2.45;;;17.50;60.20;;;;;;5065910;28;47528;-66
2023/05/02 00:43:38;;;;;;;3.05;2.58;;;17.50;60.50;;;;;;5065657;28;45317;-66
2023/05/02 00:46:05;;;;;;;2.50;2.30;;;17.50;60.20;;;;;;5065833;28;45317;-66
2023/05/02 00:48:32;;;;;;;2.65;2.45;;;17.50;60.00;;;;;;5066392;28;45627;-66
2023/05/02 00:50:58;;;;;;;2.83;2.35;;;17.50;60.10;;;;;;5065489;28;45325;-66
2023/05/02 00:53:26;;;;;;;2.40;2.20;;;17.50;59.90;;;;;;5065417;28;45377;-66
2023/05/02 00:55:53;;;;;;;3.10;2.40;;;17.60;60.00;;;;;;5065546;28;45257;-67
2023/05/02 00:58:20;;;;;;;2.70;2.50;;;17.50;60.00;;;;;;5066032;28;45278;-66
2023/05/02 01:00:55;;;;;;;3.80;2.58;;;17.50;60.00;;;;;;5064273;28;46683;-66
2023/05/02 01:03:35;;;;;;;2.55;2.35;;;17.50;60.00;;;;;;5065643;28;45338;-66
2023/05/02 01:06:07;;;;;;;4.78;2.47;;;17.50;59.90;;;;;;5065718;28;45281;-66
2023/05/02 01:08:39;;;;;;;3.65;2.40;;;17.50;59.80;;;;;;5065595;28;45359;-66
2023/05/02 01:11:13;;;;;;;2.78;2.53;;;17.50;59.80;;;;;;5065251;28;46452;-66
2023/05/02 01:13:40;;;;;;;2.53;2.22;;;17.50;60.00;;;;;;5065128;28;45266;-66
2023/05/02 01:16:07;;;;;;;2.97;2.50;;;17.40;59.90;;;;;;5065384;28;45360;-66
2023/05/02 01:18:36;;;;;;;2.30;2.10;;;17.50;59.90;;;;;;5065422;28;45416;-66
2023/05/02 01:21:04;;;;;;;2.35;2.13;;;17.50;59.70;;;;;;5065151;28;46399;-67
2023/05/02 01:23:38;;;;;;;2.33;2.20;;;17.40;60.30;;;;;;5065226;28;45323;-66
2023/05/02 01:26:13;;;;;;;2.38;2.17;;;17.50;59.60;;;;;;5065239;28;45303;-66
2023/05/02 01:29:00;;;;;;;2.53;2.33;;;17.40;59.60;;;;;;5065115;28;45322;-66
2023/05/02 01:31:27;;;;;;;2.63;2.42;;;17.40;59.70;;;;;;5065035;28;45270;-66
2023/05/02 01:33:54;;;;;;;3.50;2.22;;;17.50;59.90;;;;;;5065249;28;45435;-66
2023/05/02 01:36:21;;;;;;;2.47;2.28;;;17.40;59.80;;;;;;5065135;28;45342;-66
2023/05/02 01:38:48;;;;;;;2.35;2.22;;;17.40;59.70;;;;;;5065320;28;45326;-66
2023/05/02 01:41:16;;;;;;;2.47;2.28;;;17.40;59.60;;;;;;5064864;28;45515;-66
2023/05/02 01:43:43;;;;;;;2.63;2.40;;;17.40;59.80;;;;;;5064947;28;45406;-66
2023/05/02 01:46:11;;;;;;;2.85;2.65;;;17.40;59.80;;;;;;5065239;28;45404;-66
2023/05/02 01:48:37;;;;;;;2.78;2.47;;;17.40;59.70;;;;;;5065719;28;45276;-66
2023/05/02 01:51:04;;;;;;;2.55;2.38;;;17.40;59.70;;;;;;5064923;28;45426;-66
2023/05/02 01:53:31;;;;;;;2.63;2.42;;;17.40;59.80;;;;;;5064742;28;45266;-66
2023/05/02 01:55:58;;;;;;;2.90;2.70;;;17.30;59.80;;;;;;5064869;28;45487;-66
2023/05/02 01:58:25;;;;;;;3.10;2.17;;;17.30;59.90;;;;;;5065117;28;45436;-66
2023/05/02 02:00:52;;;;;;;2.90;2.70;;;17.30;60.00;;;;;;5064726;28;46415;-66
2023/05/02 02:03:20;;;;;;;2.55;2.35;;;17.30;60.00;;;;;;5064731;28;45337;-66
2023/05/02 02:05:47;;;;;;;4.93;2.70;;;17.30;60.00;;;;;;5065148;28;45111;-66
2023/05/02 02:08:14;;;;;;;2.65;2.20;;;17.30;60.10;;;;;;5065309;28;45395;-66
2023/05/02 02:10:43;;;;;;;3.10;2.70;;;17.30;60.00;;;;;;5064705;28;46679;-66
2023/05/02 02:13:15;;;;;;;2.60;2.40;;;17.20;60.10;;;;;;5067828;28;45321;-66
2023/05/02 02:15:42;;;;;;;2.95;2.22;;;17.20;60.30;;;;;;5068264;28;45322;-66
2023/05/02 02:18:10;;;;;;;2.50;2.30;;;17.20;60.50;;;;;;5068494;28;45412;-66
2023/05/02 02:20:38;;;;;;;2.30;2.10;;;17.20;60.60;;;;;;5068157;28;45395;-66
2023/05/02 02:23:07;;;;;;;2.72;2.40;;;17.20;60.60;;;;;;5067988;28;45336;-66
2023/05/02 02:25:34;;;;;;;3.40;2.42;;;17.10;60.50;;;;;;5068209;28;45317;-66
2023/05/02 02:28:00;;;;;;;2.55;2.35;;;17.10;60.60;;;;;;5067769;28;45277;-66
2023/05/02 02:30:27;;;;;;;2.60;2.40;;;17.10;60.70;;;;;;5067769;28;45308;-66
2023/05/02 02:32:54;;;;;;;2.78;2.50;;;17.10;60.70;;;;;;5067874;28;45327;-66
2023/05/02 02:35:21;;;;;;;4.00;2.10;;;17.10;60.70;;;;;;5068067;28;45314;-66
2023/05/02 02:37:52;;;;;;;2.67;2.30;;;17.10;60.70;;;;;;5068200;28;45365;-66
2023/05/02 02:40:22;;;;;;;3.00;2.70;;;17.10;60.60;;;;;;5067583;28;45392;-66
2023/05/02 02:42:52;;;;;;;2.63;2.38;;;17.10;60.50;;;;;;5067789;28;45334;-66
2023/05/02 02:45:25;;;;;;;2.33;2.13;;;17.10;60.60;;;;;;5067838;28;45277;-66
2023/05/02 02:47:55;;;;;;;2.55;2.35;;;17.00;60.60;;;;;;5068055;28;45271;-66
2023/05/02 02:50:25;;;;;;;2.45;2.25;;;17.00;60.50;;;;;;5067524;28;47312;-66
2023/05/02 02:52:55;;;;;;;2.92;2.25;;;17.00;60.40;;;;;;5067732;28;45376;-66
2023/05/02 02:55:29;;;;;;;2.60;2.40;;;17.00;60.70;;;;;;5067816;28;45312;-66
2023/05/02 02:57:59;;;;;;;2.35;2.15;;;16.90;60.70;;;;;;5067881;28;45375;-66
2023/05/02 03:00:27;;;;;;;3.00;2.53;;;16.90;60.70;;;;;;5067698;28;45340;-66
2023/05/02 03:02:54;;;;;;;2.38;2.17;;;16.90;61.00;;;;;;5067444;28;45308;-66
2023/05/02 03:05:21;;;;;;;2.60;2.40;;;16.90;61.50;;;;;;5067476;28;45452;-66
2023/05/02 03:07:48;;;;;;;3.00;2.70;;;16.90;61.60;;;;;;5067670;28;45279;-66
2023/05/02 03:10:16;;;;;;;2.78;2.55;;;16.90;61.70;;;;;;5067251;28;46639;-66
2023/05/02 03:12:43;;;;;;;2.53;2.33;;;16.90;61.90;;;;;;5067229;28;45361;-66
2023/05/02 03:15:19;;;;;;;2.40;2.20;;;16.90;61.80;;;;;;5067469;28;45344;-66
2023/05/02 03:17:45;;;;;;;2.50;2.30;;;16.90;61.70;;;;;;5067728;28;45426;-66
2023/05/02 03:20:12;;;;;;;4.65;2.28;;;16.90;61.50;;;;;;5067070;28;47751;-66
2023/05/02 03:22:39;;;;;;;3.13;2.83;;;16.90;61.60;;;;;;5066699;28;45278;-66
2023/05/02 03:25:07;;;;;;;4.63;2.97;;;16.80;61.40;;;;;;5066551;28;45269;-66
2023/05/02 03:27:35;;;;;;;2.50;2.30;;;16.80;61.70;;;;;;5067159;28;45278;-66
2023/05/02 03:30:02;;;;;;;3.58;2.58;;;16.80;61.90;;;;;;5066878;28;46314;-67
2023/05/02 03:32:29;;;;;;;2.92;2.63;;;16.80;61.80;;;;;;5067208;28;45353;-67
2023/05/02 03:34:57;;;;;;;3.20;2.90;;;16.70;62.10;;;;;;5067399;28;45285;-67
2023/05/02 03:37:24;;;;;;;3.47;2.30;;;16.70;62.10;;;;;;5067310;28;45262;-67
2023/05/02 03:39:51;;;;;;;2.90;2.60;;;16.60;62.10;;;;;;5066923;28;47758;-66
2023/05/02 03:42:17;;;;;;;2.80;2.60;;;16.60;62.20;;;;;;5066928;28;45349;-66
2023/05/02 03:44:45;;;;;;;2.35;2.15;;;16.50;62.60;;;;;;5067094;28;45384;-66
2023/05/02 03:47:13;;;;;;;3.13;2.65;;;16.50;62.80;;;;;;5067188;28;45420;-66
2023/05/02 03:49:40;;;;;;;2.65;2.30;;;16.50;62.80;;;;;;5067005;28;45462;-66
2023/05/02 03:52:07;;;;;;;2.58;2.38;;;16.50;62.70;;;;;;5066689;28;45345;-66
2023/05/02 03:54:33;;;;;;;2.58;2.20;;;16.50;62.60;;;;;;5067187;28;45390;-66
2023/05/02 03:57:00;;;;;;;3.83;2.50;;;16.50;62.90;;;;;;5066816;28;45420;-66
2023/05/02 03:59:28;;;;;;;4.65;2.72;;;16.50;62.90;;;;;;5066823;28;45312;-66
2023/05/02 04:01:56;;;;;;;2.55;2.20;;;16.50;63.20;;;;;;5066626;28;45306;-66
2023/05/02 04:04:23;;;;;;;2.60;2.10;;;16.50;63.30;;;;;;5066951;28;45360;-66
2023/05/02 04:06:50;;;;;;;2.60;2.40;;;16.40;63.50;;;;;;5066932;28;45468;-66
2023/05/02 04:09:17;;;;;;;2.35;2.15;;;16.40;63.10;;;;;;5067055;28;46532;-67
2023/05/02 04:11:44;;;;;;;2.90;2.50;;;16.50;63.20;;;;;;5067183;28;45307;-66
2023/05/02 04:14:11;;;;;;;2.42;2.22;;;16.50;63.20;;;;;;5067103;28;45261;-67
2023/05/02 04:16:38;;;;;;;4.25;2.40;;;16.50;63.40;;;;;;5066956;28;45416;-67
2023/05/02 04:19:06;;;;;;;2.53;2.10;;;16.40;63.30;;;;;;5066606;28;45537;-66
2023/05/02 04:21:33;;;;;;;2.33;2.10;;;16.40;63.00;;;;;;5066556;28;45245;-67
2023/05/02 04:24:00;;;;;;;3.08;1.90;;;16.40;63.10;;;;;;5066470;28;45341;-67
2023/05/02 04:26:27;;;;;;;2.40;2.20;;;16.30;63.40;;;;;;5066594;28;45353;-65
2023/05/02 04:28:54;;;;;;;2.20;2.00;;;16.40;64.00;;;;;;5066303;28;46394;-67
2023/05/02 04:31:21;;;;;;;2.60;2.40;;;16.40;62.80;;;;;;5066283;28;45303;-67
2023/05/02 04:33:47;;;;;;;2.45;2.03;;;16.40;62.80;;;;;;5066470;28;45345;-66
2023/05/02 04:36:16;;;;;;;2.38;2.10;;;16.50;62.40;;;;;;5066478;28;45558;-66
2023/05/02 04:38:43;;;;;;;4.28;2.35;;;16.50;62.40;;;;;;5066334;28;45606;-67
2023/05/02 04:41:10;;;;;;;2.50;1.85;;;16.50;62.70;;;;;;5066166;28;45408;-66
2023/05/02 04:43:36;;;;;;;2.70;2.20;;;16.50;62.20;;;;;;5066331;28;45238;-66
2023/05/02 04:46:03;;;;;;;2.97;2.30;;;16.50;62.40;;;;;;5066240;28;45254;-66
2023/05/02 04:48:30;;;;;;;2.53;2.33;;;16.60;63.10;;;;;;5066163;28;46654;-66
2023/05/02 04:50:57;;;;;;;4.68;2.83;;;16.60;62.50;;;;;;5066041;28;45329;-66
2023/05/02 04:53:25;;;;;;;2.50;2.30;;;16.50;62.10;;;;;;5065904;28;45333;-66
2023/05/02 04:55:52;;;;;;;2.67;2.33;;;16.60;62.40;;;;;;5066182;28;45246;-66
2023/05/02 04:58:19;;;;;;;2.60;2.28;;;16.60;62.00;;;;;;5066009;28;46573;-66
2023/05/02 05:00:45;;;;;;;2.92;2.33;;;16.60;61.70;;;;;;5065929;28;45329;-66
2023/05/02 05:03:12;;;;;;;2.95;2.67;;;16.70;61.50;;;;;;5065730;28;45418;-66
2023/05/02 05:05:39;;;;;;;2.95;2.70;;;16.60;62.30;;;;;;5066135;28;45380;-66
2023/05/02 05:08:06;;;;;;;3.17;2.10;;;16.60;62.50;;;;;;5065664;28;45230;-66
2023/05/02 05:10:35;;;;;;;2.78;2.58;;;16.60;62.00;;;;;;5065725;28;45258;-66
2023/05/02 05:13:03;;;;;;;2.67;2.30;;;16.60;62.30;;;;;;5065656;28;45394;-66
2023/05/02 05:15:30;;;;;;;4.65;2.60;;;16.70;62.30;;;;;;5066001;28;45335;-66
2023/05/02 05:17:57;;;;;;;3.22;2.30;;;16.70;61.70;;;;;;5065322;28;45292;-66
2023/05/02 05:20:24;;;;;;;2.67;2.40;;;16.70;61.20;;;;;;5065532;28;45259;-66
2023/05/02 05:22:50;;;;;;;4.47;2.33;;;16.70;61.10;;;;;;5065576;28;45325;-66
2023/05/02 05:25:17;;;;;;;3.00;2.72;;;16.70;60.80;;;;;;5065713;28;45452;-66
2023/05/02 05:27:46;;;;;;;3.13;2.40;;;16.80;61.00;;;;;;5064914;28;46682;-66
2023/05/02 05:30:12;;;;;;;2.67;2.20;;;16.70;61.10;;;;;;5065342;28;45309;-66
2023/05/02 05:32:39;;;;;;;3.67;2.80;;;16.80;60.60;;;;;;5065667;28;45340;-66
2023/05/02 05:35:07;;;;;;;2.22;2.03;;;16.80;61.40;;;;;;5065551;28;45281;-66
2023/05/02 05:37:36;;;;;;;1.88;1.73;;;16.80;59.30;;;;;;5065032;28;47615;-66
2023/05/02 05:40:03;;;;;;;2.30;2.05;;;16.90;58.90;;;;;;5065311;28;45379;-66
2023/05/02 05:42:30;;;;;;;2.08;1.88;;;16.90;59.40;;;;;;5056873;28;45307;-66
2023/05/02 05:44:58;;;;;;;3.65;2.15;;;17.00;59.40;;;;;;5065415;28;45399;-69
2023/05/02 05:47:25;;;;;;;5.20;1.98;;;17.00;58.80;;;;;;5067072;28;45507;-66
2023/05/02 05:49:53;;;;;;;1.90;1.67;;;17.00;58.30;;;;;;5068999;28;45312;-66
2023/05/02 05:52:20;;;;;;;2.63;1.92;;;17.00;58.90;;;;;;5068672;28;45356;-66
2023/05/02 05:54:47;;;;;;;3.90;2.35;;;17.00;58.50;;;;;;5068868;28;45360;-66
2023/05/02 05:57:13;;;;;;;2.28;2.08;;;17.00;58.90;;;;;;5068498;28;45593;-66
2023/05/02 05:59:40;;;;;;;1.90;1.80;;;17.00;59.70;;;;;;5068635;28;45309;-66
2023/05/02 06:02:08;;;;;;;1.85;1.75;;;17.00;58.40;;;;;;5068775;28;45325;-66
2023/05/02 06:04:35;;;;;;;3.67;2.03;;;17.00;58.70;;;;;;5068688;28;45464;-66
2023/05/02 06:07:02;;;;;;;4.38;2.10;;;17.00;58.80;;;;;;5068506;28;47279;-66
2023/05/02 06:09:29;;;;;;;3.25;2.40;;;17.10;58.00;;;;;;5068350;28;45344;-66
2023/05/02 06:11:55;;;;;;;3.85;2.80;;;17.10;59.60;;;;;;5068333;28;45368;-65
2023/05/02 06:14:23;;;;;;;2.40;2.20;;;17.00;61.00;;;;;;5068683;28;45394;-66
2023/05/02 06:16:50;;;;;;;3.90;2.28;;;16.90;60.90;;;;;;5068559;28;45166;-66
2023/05/02 06:19:18;;;;;;;3.60;2.60;;;16.90;59.30;;;;;;5068501;28;45352;-66
2023/05/02 06:21:45;;;;;;;4.68;2.75;;;16.90;59.70;;;;;;5068273;28;45380;-66
2023/05/02 06:24:11;;;;;;;3.30;2.47;;;17.00;59.70;;;;;;5068516;28;45347;-66
2023/05/02 06:26:38;;;;;;;3.42;2.08;;;17.00;59.90;;;;;;5067734;28;45478;-67
2023/05/02 06:29:05;;;;;;;2.55;2.30;;;17.00;59.40;;;;;;5068317;28;45400;-66
2023/05/02 06:31:32;;;;;;;2.20;2.00;;;17.00;59.10;;;;;;5068199;28;45238;-66
2023/05/02 06:33:59;;;;;;;3.42;2.50;;;17.10;58.60;;;;;;5068327;28;45361;-66
2023/05/02 06:36:27;;;;;;;4.32;2.20;;;17.10;59.10;;;;;;5067879;28;45464;-66
2023/05/02 06:38:54;;;;;;;3.25;1.92;;;17.10;58.70;;;;;;5067891;28;45322;-66
2023/05/02 06:41:22;;;;;;;2.97;2.53;;;17.10;58.10;;;;;;5068033;28;45435;-66
2023/05/02 06:43:49;;;;;;;2.55;2.35;;;17.10;58.80;;;;;;5068411;28;45384;-67
2023/05/02 06:46:16;;;;;;;4.38;2.80;;;17.10;59.20;;;;;;5067722;28;46969;-66
2023/05/02 06:48:43;;;;;;;3.50;2.65;;;17.10;59.50;;;;;;5068177;28;45325;-66
2023/05/02 06:51:10;;;;;;;1.90;1.80;;;17.10;59.20;;;;;;5067957;28;45281;-67
2023/05/02 06:53:38;;;;;;;2.83;2.58;;;17.10;58.10;;;;;;5068195;28;45190;-66
2023/05/02 06:56:06;;;;;;;4.28;2.60;;;17.10;58.20;;;;;;5067885;28;47337;-66
2023/05/02 06:58:33;;;;;;;2.05;1.90;;;17.20;58.40;;;;;;5066475;28;45238;-66
2023/05/02 07:00:59;;;;;;;5.05;2.40;;;17.20;57.90;;;;;;5067801;28;45544;-66
2023/05/02 07:03:26;;;;;;;3.75;2.60;;;17.20;58.00;;;;;;5068121;28;45441;-66
2023/05/02 07:05:53;;;;;;;3.65;2.40;;;17.20;58.10;;;;;;5067680;28;45669;-66
2023/05/02 07:08:21;;;;;;;3.50;2.40;;;17.20;58.10;;;;;;5067711;28;45337;-66
2023/05/02 07:10:50;;;;;;;6.50;2.70;;;17.20;58.00;;;;;;5067488;28;45329;-66
2023/05/02 07:13:16;;;;;;;4.47;2.67;;;17.20;57.60;;;;;;5067754;28;45266;-66
2023/05/02 07:15:43;;;;;;;3.90;3.55;;;17.20;57.60;;;;;;5067700;28;45537;-66
2023/05/02 07:18:10;;;;;;;4.82;4.07;;;17.20;57.50;;;;;;5067364;28;45384;-66
2023/05/02 07:20:40;;;;;;;4.25;3.22;;;17.30;57.40;;;;;;5067483;28;45356;-66
2023/05/02 07:23:07;;;;;;;5.75;2.90;;;17.20;57.50;;;;;;5067503;28;45444;-66
2023/05/02 07:25:35;;;;;;;5.45;3.75;;;17.30;57.50;;;;;;5067188;28;45571;-66
2023/05/02 07:28:04;;;;;;;5.13;2.80;;;17.30;57.40;;;;;;5067031;28;45396;-66
2023/05/02 07:30:31;;;;;;;3.45;2.92;;;17.30;57.40;;;;;;5067598;28;45253;-66
2023/05/02 07:32:57;;;;;;;3.08;2.53;;;17.30;57.40;;;;;;5067417;28;45319;-66
2023/05/02 07:35:24;;;;;;;5.60;3.10;;;17.40;57.50;;;;;;5067198;28;45356;-66
2023/05/02 07:37:51;;;;;;;5.47;3.70;;;17.40;57.40;;;;;;5067605;28;45371;-66
2023/05/02 07:40:18;;;;;;;8.38;6.70;;;17.40;57.30;;;;;;5067151;28;45324;-66
2023/05/02 07:42:45;;;;;;;5.78;3.92;;;17.40;57.20;;;;;;5067331;28;45424;-66
2023/05/02 07:45:13;;;;;;;3.90;3.05;;;17.40;57.20;;;;;;5066915;28;45505;-67
2023/05/02 07:47:40;;;;;;;5.10;4.10;;;17.40;57.40;;;;;;5066919;28;45332;-66
2023/05/02 07:50:08;;;;;;;6.03;4.63;;;17.40;57.30;;;;;;5067312;28;45412;-66
2023/05/02 07:52:35;;;;;;;6.03;4.07;;;17.40;57.20;;;;;;5064406;28;45312;-66
2023/05/02 07:55:02;;;;;;;4.85;3.35;;;17.40;57.30;;;;;;5066932;28;46335;-66
2023/05/02 07:57:28;;;;;;;6.30;3.72;;;17.40;57.10;;;;;;5067049;28;45421;-66
2023/05/02 07:59:56;;;;;;;4.60;4.03;;;17.50;56.80;;;;;;5067044;28;45301;-66
2023/05/02 08:02:25;;;;;;;7.90;3.38;;;17.50;56.90;;;;;;5067042;28;45554;-66
2023/05/02 08:04:51;;;;;;;6.68;4.78;;;17.50;57.00;;;;;;5066734;28;46578;-66
2023/05/02 08:07:18;;;;;;;8.27;2.80;;;17.50;56.90;;;;;;5066739;28;45537;-66
2023/05/02 08:09:45;;;;;;;4.95;3.92;;;17.60;56.90;;;;;;5066561;28;45352;-66
2023/05/02 08:12:12;;;;;;;6.60;4.72;;;17.60;56.70;;;;;;5066832;28;45416;-69
2023/05/02 08:14:39;;;;;;;7.22;5.00;;;17.60;56.50;;;;;;5066720;28;45532;-67
2023/05/02 08:17:05;;;;;;;7.82;4.45;;;17.50;56.50;;;;;;5066583;28;45272;-67
2023/05/02 08:19:34;;;;;;;6.63;5.15;;;17.60;56.70;;;;;;5066339;28;45439;-66
2023/05/02 08:22:00;;;;;;;8.50;4.70;;;17.60;56.60;;;;;;5066895;28;45301;-67
2023/05/02 08:24:27;;;;;;;5.97;4.10;;;17.60;58.40;;;;;;5066500;28;45542;-67
2023/05/02 08:26:54;;;;;;;15.40;5.47;;;17.70;57.50;;;;;;5066242;28;45297;-68
2023/05/02 08:29:21;;;;;;;11.63;4.75;;;17.70;57.70;;;;;;5066864;28;45329;-67
2023/05/02 08:31:48;;;;;;;11.38;5.70;;;17.80;57.60;;;;;;5066547;28;45296;-66
2023/05/02 08:34:14;;;;;;;7.80;4.63;;;17.90;57.40;;;;;;5066335;28;46413;-66
2023/05/02 08:36:43;;;;;;;10.23;6.10;;;17.90;56.90;;;;;;5066322;28;45337;-67
2023/05/02 08:39:10;;;;;;;6.82;5.90;;;18.00;56.50;;;;;;5066223;28;45313;-66
2023/05/02 08:41:37;;;;;;;7.72;6.20;;;18.00;56.20;;;;;;5066646;28;45278;-68
2023/05/02 08:44:06;;;;;;;9.75;7.07;;;18.00;56.00;;;;;;5065945;28;45527;-67
2023/05/02 08:46:35;;;;;;;7.43;5.65;;;18.10;55.50;;;;;;5061541;28;45517;-67
2023/05/02 08:49:02;;;;;;;7.43;5.20;;;18.10;56.10;;;;;;5066255;28;45312;-69
2023/05/02 08:51:31;;;;;;;6.30;5.70;;;18.20;55.90;;;;;;5066460;28;45128;-67
2023/05/02 08:53:59;;;;;;;7.25;5.20;;;18.30;55.70;;;;;;5065656;28;46419;-68
2023/05/02 08:56:26;;;;;;;5.82;4.60;;;18.40;55.20;;;;;;5065760;28;45274;-68
2023/05/02 08:58:53;;;;;;;5.70;5.10;;;18.40;55.30;;;;;;5065836;28;45258;-66
2023/05/02 09:01:22;;;;;;;5.95;5.20;;;18.50;54.90;;;;;;5065916;28;45407;-65
2023/05/02 09:03:49;;;;;;;6.72;6.03;;;18.60;54.60;;;;;;5065425;28;45545;-66
2023/05/02 09:06:17;;;;;;;7.38;5.13;;;18.70;54.20;;;;;;5065624;28;45246;-67
2023/05/02 09:08:44;;;;;;;7.25;5.25;;;18.70;54.10;;;;;;5065586;28;45257;-67
2023/05/02 09:11:13;;;;;;;7.20;6.20;;;18.80;54.00;;;;;;5065655;28;45392;-67
2023/05/02 09:13:40;;;;;;;6.05;5.10;;;18.90;53.60;;;;;;5065465;28;45163;-66
2023/05/02 09:16:08;;;;;;;4.93;3.67;;;18.90;53.80;;;;;;5065459;28;45289;-66
2023/05/02 09:18:36;;;;;;;5.43;3.95;;;19.00;54.10;;;;;;5065297;28;45506;-65
2023/05/02 09:21:07;;;;;;;4.45;4.05;;;19.00;53.70;;;;;;5064716;28;45414;-66
2023/05/02 09:23:40;;;;;;;4.30;3.50;;;19.10;53.80;;;;;;5065013;28;45941;-66
2023/05/02 09:26:17;;;;;;;5.18;4.53;;;19.20;53.70;;;;;;5065057;28;45277;-68
2023/05/02 09:28:44;;;;;;;7.57;4.45;;;19.30;53.40;;;;;;5065637;28;44747;-70
2023/05/02 09:31:13;;;;;;;7.47;3.47;;;19.30;53.60;;;;;;5065536;28;45499;-66
2023/05/02 09:33:40;;;;;;;6.93;4.53;;;19.40;53.80;;;;;;5065295;28;46380;-66
2023/05/02 09:36:07;;;;;;;6.43;4.60;;;19.40;52.70;;;;;;5061203;28;45368;-67
2023/05/02 09:38:34;;;;;;;5.03;4.30;;;19.40;52.60;;;;;;5063062;28;45470;-67
2023/05/02 09:41:02;;;;;;;7.40;4.13;;;19.40;53.10;;;;;;5056992;28;45480;-68
2023/05/02 09:43:31;;;;;;;5.90;3.33;;;19.50;54.20;;;;;;5064938;28;45394;-67
2023/05/02 09:45:58;;;;;;;4.88;3.92;;;19.50;53.70;;;;;;5064827;28;45261;-69
2023/05/02 09:48:26;;;;;;;4.22;3.80;;;19.60;52.30;;;;;;5065337;28;45438;-68
2023/05/02 09:50:53;;;;;;;8.95;4.22;;;19.70;52.10;;;;;;5065675;28;45305;-70
2023/05/02 09:53:20;;;;;;;8.18;3.85;;;19.70;52.20;;;;;;5065211;28;46400;-71
2023/05/02 09:55:47;;;;;;;12.77;3.78;;;19.80;52.40;;;;;;5065561;28;45317;-74
2023/05/02 09:58:24;;;;;;;9.27;3.00;;;19.80;53.30;;;;;;5065638;28;45282;-74
2023/05/02 10:00:52;;;;;;;9.48;3.30;;;19.80;53.50;;;;;;5066028;28;45408;-73
2023/05/02 10:03:19;;;;;;;5.70;2.83;;;19.80;52.70;;;;;;5065343;28;45491;-74
2023/05/02 10:05:46;;;;;;;5.63;2.75;;;19.90;52.70;;;;;;5065921;28;45412;-74
2023/05/02 10:08:13;;;;;;;6.32;3.08;;;19.90;52.60;;;;;;5064897;28;45412;-73
2023/05/02 10:10:43;;;;;;;5.60;2.70;;;19.90;52.30;;;;;;5066010;28;45379;-73
2023/05/02 10:13:10;;;;;;;5.28;3.10;;;20.00;53.00;;;;;;5065114;28;46369;-73
2023/05/02 10:15:42;;;;;;;5.20;4.50;;;20.00;52.10;;;;;;5065122;28;45268;-70
2023/05/02 10:18:13;;;;;;;4.20;3.42;;;20.10;51.30;;;;;;5065100;28;45262;-71
2023/05/02 10:20:43;;;;;;;5.80;4.57;;;20.20;50.80;;;;;;5065611;28;45243;-72
2023/05/02 10:23:10;;;;;;;10.23;3.92;;;20.30;50.70;;;;;;5064957;28;46860;-70
2023/05/02 10:25:37;;;;;;;5.60;3.22;;;20.30;50.40;;;;;;5065281;28;45376;-71
2023/05/02 10:28:04;;;;;;;5.22;3.90;;;20.30;50.70;;;;;;5073372;28;45431;-71
2023/05/02 10:30:31;;;;;;;8.25;3.65;;;20.40;50.60;;;;;;5076318;28;45296;-71
2023/05/02 10:32:59;;;;;;;3.92;2.60;;;20.50;50.50;;;;;;5065815;28;45428;-73
2023/05/02 10:35:27;;;;;;;6.43;4.10;;;20.50;50.90;;;;;;5067634;28;45325;-69
2023/05/02 10:37:54;;;;;;;6.18;5.32;;;20.40;50.30;;;;;;5069582;28;45282;-69
2023/05/02 10:40:21;;;;;;;6.00;5.45;;;20.50;50.30;;;;;;5068376;28;45670;-70
2023/05/02 10:42:50;;;;;;;6.82;6.20;;;20.50;50.40;;;;;;5069948;28;47682;-70
2023/05/02 10:45:30;;;;;;;6.43;5.75;;;20.50;50.50;;;;;;5070465;28;45309;-70
2023/05/02 10:48:12;;;;;;;7.13;5.18;;;20.60;50.60;;;;;;5088572;28;45457;-69
2023/05/02 10:50:50;;;;;;;7.10;6.13;;;20.60;50.70;;;;;;5088895;28;45363;-70
2023/05/02 10:53:24;;;;;;;6.25;5.63;;;20.70;50.70;;;;;;5087934;28;46712;-69
2023/05/02 10:56:15;;;;;;;6.35;5.45;;;20.80;50.60;;;;;;5088272;28;45324;-70
2023/05/02 10:58:42;;;;;;;5.07;3.25;;;20.90;50.70;;;;;;5088278;28;45324;-69
2023/05/02 11:01:36;;;;;;;5.15;3.78;;;20.90;51.10;;;;;;5088370;28;45273;-69
2023/05/02 11:04:04;;;;;;;4.38;3.97;;;21.00;51.40;;;;;;5088185;28;46650;-68
2023/05/02 11:06:34;;;;;;;7.25;5.60;;;21.10;51.40;;;;;;5087972;28;45534;-68
2023/05/02 11:09:35;;;;;;;5.03;4.28;;;21.20;50.80;;;;;;5088089;28;45234;-68
2023/05/02 11:12:03;;;;;;;4.03;3.63;;;21.20;50.50;;;;;;5087547;28;45344;-69
2023/05/02 11:14:47;;;;;;;6.25;5.65;;;21.30;50.90;;;;;;5087792;28;45406;-70
2023/05/02 11:17:14;;;;;;;5.43;4.05;;;21.30;50.60;;;;;;5085139;28;45354;-69
2023/05/02 11:20:26;;;;;;;5.03;3.95;;;21.30;51.10;;;;;;5087825;28;45319;-69
2023/05/02 11:22:55;;;;;;;3.72;2.80;;;21.30;50.90;;;;;;5087856;28;45360;-68
2023/05/02 11:25:35;;;;;;;6.10;4.32;;;21.30;51.60;;;;;;5087747;28;46367;-69
2023/05/02 11:28:02;;;;;;;6.07;4.85;;;21.30;50.30;;;;;;5087476;28;45343;-69
2023/05/02 11:30:42;;;;;;;3.47;3.17;;;21.30;49.80;;;;;;5087810;28;45320;-69
2023/05/02 11:33:16;;;;;;;2.90;2.65;;;21.40;50.30;;;;;;5087673;28;45296;-69
2023/05/02 11:35:47;;;;;;;3.75;3.40;;;21.50;50.50;;;;;;5087712;28;46645;-69
2023/05/02 11:38:21;;;;;;;7.10;4.30;;;21.60;50.40;;;;;;5087611;28;45393;-70
2023/05/02 11:40:52;;;;;;;6.10;4.60;;;21.70;49.50;;;;;;5087788;28;45354;-69
2023/05/02 11:43:20;;;;;;;6.38;5.18;;;21.80;48.50;;;;;;5087411;28;45407;-69
2023/05/02 11:45:47;;;;;;;5.75;4.88;;;21.90;47.30;;;;;;5085972;27;45958;-69
2023/05/02 11:48:14;;;;;;;3.95;2.97;;;21.90;47.10;;;;;;5087408;28;45300;-66
2023/05/02 11:50:44;;;;;;;6.10;3.47;;;21.90;49.30;;;;;;5087429;28;45341;-67
2023/05/02 11:53:12;;;;;;;7.90;4.25;;;21.90;48.90;;;;;;5087944;28;45530;-63
2023/05/02 11:55:44;;;;;;;13.55;4.50;;;21.90;49.70;;;;;;5086699;28;45400;-64
2023/05/02 11:58:13;;;;;;;17.58;3.50;;;22.00;50.80;;;;;;5086756;28;45387;-64
2023/05/02 12:00:40;;;;;;;22.13;4.25;;;22.00;50.80;;;;;;5086789;28;45295;-63
2023/05/02 12:03:07;;;;;;;16.38;4.20;;;22.10;50.80;;;;;;5086946;28;45391;-65
2023/05/02 12:05:34;;;;;;;20.35;5.13;;;22.10;50.40;;;;;;5086946;28;45512;-65
2023/05/02 12:08:01;;;;;;;23.10;5.40;;;22.20;51.70;;;;;;5086744;28;45648;-64
2023/05/02 12:10:35;;;;;;;16.70;3.88;;;22.50;51.20;;;;;;5086785;28;45372;-63
2023/05/02 12:13:05;;;;;;;9.90;4.05;;;22.70;49.60;;;;;;5086782;28;45387;-64
2023/05/02 12:15:32;;;;;;;12.10;3.45;;;22.70;49.60;;;;;;5085942;28;46717;-64
2023/05/02 12:17:59;;;;;;;14.82;4.03;;;22.80;49.20;;;;;;5086486;28;45323;-64
2023/05/02 12:20:26;;;;;;;9.00;3.85;;;22.90;48.90;;;;;;5086566;28;45301;-64
2023/05/02 12:22:53;;;;;;;11.00;3.90;;;22.90;48.60;;;;;;5086613;28;45573;-64
2023/05/02 12:25:20;;;;;;;9.68;3.15;;;22.90;48.50;;;;;;5086385;28;47495;-62
2023/05/02 12:27:59;;;;;;;10.23;3.40;;;22.90;48.50;;;;;;5085815;28;45359;-63
2023/05/02 12:30:28;;;;;;;7.60;3.13;;;22.90;48.50;;;;;;5086343;28;45420;-63
2023/05/02 12:32:58;;;;;;;9.70;3.25;;;22.90;48.50;;;;;;5086679;28;45379;-63
2023/05/02 12:35:25;;;;;;;11.65;3.05;;;22.90;48.40;;;;;;5086239;28;45333;-63
2023/05/02 12:37:53;;;;;;;5.50;2.72;;;22.90;48.30;;;;;;5086158;28;45440;-64
2023/05/02 12:40:20;;;;;;;9.35;2.90;;;22.90;48.20;;;;;;5086133;28;45344;-63
2023/05/02 12:42:58;;;;;;;7.57;3.20;;;23.00;48.20;;;;;;5086359;28;45310;-65
2023/05/02 12:45:28;;;;;;;5.45;3.25;;;23.00;48.10;;;;;;5085850;28;46692;-64
2023/05/02 12:47:56;;;;;;;5.93;3.13;;;23.00;48.00;;;;;;5083295;28;45372;-64
2023/05/02 12:50:35;;;;;;;7.18;2.70;;;23.10;47.90;;;;;;5086174;28;45396;-61
2023/05/02 12:53:02;;;;;;;5.63;3.30;;;23.10;47.80;;;;;;5086138;28;45316;-63